Portada
METAR-TAF:

METAR-TAF

Aeroports :

Aeroport Internacional de Fujairah

Fujairah, Emirats Àrabs Units

latitud: 25-06N, longitud: 056-20E, altitud: 28 m

Observació

L'informe es va fer fa 1 hora i 5 minuts, a les 23:00 UTC
Vent 5 kt del Nord/Nord-Est
Temperatura 32°C
Humitat 75%
Pressió 1001 hPa
Visibilitat: 6000 m

METAR: OMFJ 292300Z 03005KT 6000 NSC 32/27 Q1001 RMK A2957

Hora: 04:05 (00:05 UTC)

Pronòstic

L'informe es va fer fa 7 hores i 5 minuts, a les 17:00 UTC
Pronòstic vàlid del 29 a les 18 UTC al 30 a les 24 UTC
Vent 5 kt del Sud-Oest
Visibilitat: 7000 m
Temporalment
l' 29 a les 19 UTC al 30 a les 03 UTC
Vent 3 kt amb direcció variable
Visibilitat: 5000 m
calitja
Evolucionant progressivament
l' 30 a les 04 UTC al 30 a les 06 UTC
Vent 8 kt del Est
Evolucionant progressivament
l' 30 a les 14 UTC al 30 a les 16 UTC
Vent 3 kt amb direcció variable

TAF: OMFJ 291700Z 2918/3024 22005KT 7000 NSC TEMPO 2919/3003 VRB03KT 5000 HZ BECMG 3004/3006 09008KT BECMG 3014/3016 VRB03KT

Observacions i pronòstics meteorològics de més de 4000 aeroports (METAR i TAF).

Les estacions disponibles són els punts grocs i vermells al mapa.

Posi el ratolí al punt desitjat per veure el nom de l'estació.

Feu clic per veure les observacions i els pronòstics meteorològics.

Per canviar el mapa: feu clic els botons verds amb una creu de color negre per apropar; al botó verd amb un guió per allunyar la imatge; o en les fletxes verdes per a mapes adjacents.


METAR-TAF: